地図

経路データ

SID SEASON NUMBER BASIN SUBBASIN NAME ISO_TIME NATURE LAT LON WMO_WIND WMO_PRES WMO_AGENCY TRACK_TYPE DIST2LAND LANDFALL IFLAG USA_AGENCY USA_ATCF_ID USA_LAT USA_LON USA_RECORD USA_STATUS USA_WIND USA_PRES USA_SSHS USA_R34_NE USA_R34_SE USA_R34_SW USA_R34_NW USA_R50_NE USA_R50_SE USA_R50_SW USA_R50_NW USA_R64_NE USA_R64_SE USA_R64_SW USA_R64_NW USA_POCI USA_ROCI USA_RMW USA_EYE TOKYO_LAT TOKYO_LON TOKYO_GRADE TOKYO_WIND TOKYO_PRES TOKYO_R50_DIR TOKYO_R50_LONG TOKYO_R50_SHORT TOKYO_R30_DIR TOKYO_R30_LONG TOKYO_R30_SHORT TOKYO_LAND CMA_LAT CMA_LON CMA_CAT CMA_WIND CMA_PRES HKO_LAT HKO_LON HKO_CAT HKO_WIND HKO_PRES NEWDELHI_LAT NEWDELHI_LON NEWDELHI_GRADE NEWDELHI_WIND NEWDELHI_PRES NEWDELHI_CI NEWDELHI_DP NEWDELHI_POCI REUNION_LAT REUNION_LON REUNION_TYPE REUNION_WIND REUNION_PRES REUNION_TNUM REUNION_CI REUNION_RMW REUNION_R34_NE REUNION_R34_SE REUNION_R34_SW REUNION_R34_NW REUNION_R50_NE REUNION_R50_SE REUNION_R50_SW REUNION_R50_NW REUNION_R64_NE REUNION_R64_SE REUNION_R64_SW REUNION_R64_NW BOM_LAT BOM_LON BOM_TYPE BOM_WIND BOM_PRES BOM_TNUM BOM_CI BOM_RMW BOM_R34_NE BOM_R34_SE BOM_R34_SW BOM_R34_NW BOM_R50_NE BOM_R50_SE BOM_R50_SW BOM_R50_NW BOM_R64_NE BOM_R64_SE BOM_R64_SW BOM_R64_NW BOM_ROCI BOM_POCI BOM_EYE BOM_POS_METHOD BOM_PRES_METHOD NADI_LAT NADI_LON NADI_CAT NADI_WIND NADI_PRES WELLINGTON_LAT WELLINGTON_LON WELLINGTON_WIND WELLINGTON_PRES DS824_LAT DS824_LON DS824_STAGE DS824_WIND DS824_PRES TD9636_LAT TD9636_LON TD9636_STAGE TD9636_WIND TD9636_PRES TD9635_LAT TD9635_LON TD9635_WIND TD9635_PRES TD9635_ROCI NEUMANN_LAT NEUMANN_LON NEUMANN_CLASS NEUMANN_WIND NEUMANN_PRES MLC_LAT MLC_LON MLC_CLASS MLC_WIND MLC_PRES USA_GUST BOM_GUST BOM_GUST_PER REUNION_GUST REUNION_GUST_PER USA_SEAHGT USA_SEARAD_NE USA_SEARAD_SE USA_SEARAD_SW USA_SEARAD_NW STORM_SPEED STORM_DIR
1921022S15150 1921 4 SP EA NOT_NAMED 1921-01-21 23:00:00 NR -14.9000 149.900 main 471 461 __________O___ -1 -14.9000 149.900 7 6 308
1921022S15150 1921 4 SP EA NOT_NAMED 1921-01-22 00:00:00 NR -14.8362 149.819 main 461 451 __________P___ -1 -14.8362 149.819 7 6 309
1921022S15150 1921 4 SP EA NOT_NAMED 1921-01-22 03:00:00 NR -14.6433 149.574 main 441 428 __________P___ -1 -14.6433 149.574 7 6 309
1921022S15150 1921 4 SP EA NOT_NAMED 1921-01-22 06:00:00 NR -14.4462 149.327 main 425 413 __________P___ -1 -14.4462 149.327 7 6 310
1921022S15150 1921 4 SP EA NOT_NAMED 1921-01-22 09:00:00 NR -14.2418 149.073 main 409 399 __________P___ -1 -14.2418 149.073 7 6 310
1921022S15150 1921 4 SP EA NOT_NAMED 1921-01-22 11:00:00 NR -14.1000 148.900 main 399 389 __________O___ -1 -14.1000 148.900 7 7 310
1921022S15150 1921 4 SP EA NOT_NAMED 1921-01-22 12:00:00 NR -14.0272 148.812 main 393 376 __________P___ -1 -14.0272 148.812 7 7 310
1921022S15150 1921 4 SP EA NOT_NAMED 1921-01-22 15:00:00 NR -13.8062 148.545 main 370 359 __________P___ -1 -13.8062 148.545 7 7 310
1921022S15150 1921 4 SP EA NOT_NAMED 1921-01-22 18:00:00 NR -13.5936 148.285 main 359 345 __________P___ -1 -13.5936 148.285 7 6 309
1921022S15150 1921 4 SP EA NOT_NAMED 1921-01-22 21:00:00 NR -13.4048 148.044 main 341 338 __________P___ -1 -13.4048 148.044 7 6 308
1921022S15150 1921 4 SP EA NOT_NAMED 1921-01-22 23:00:00 NR -13.3000 147.900 main 338 330 __________O___ -1 -13.3000 147.900 7 5 306
1921022S15150 1921 4 SP EA NOT_NAMED 1921-01-23 00:00:00 NR -13.2582 147.837 main 330 328 __________P___ -1 -13.2582 147.837 7 4 302
1921022S15150 1921 4 SP EA NOT_NAMED 1921-01-23 03:00:00 NR -13.1603 147.669 main 328 318 __________P___ -1 -13.1603 147.669 7 3 299
1921022S15150 1921 4 SP EA NOT_NAMED 1921-01-23 06:00:00 NR -13.0918 147.524 main 318 310 __________P___ -1 -13.0918 147.524 7 3 294
1921022S15150 1921 4 SP EA NOT_NAMED 1921-01-23 09:00:00 NR -13.0368 147.390 main 318 310 __________P___ -1 -13.0368 147.390 7 3 293
1921022S15150 1921 4 SP EA NOT_NAMED 1921-01-23 11:00:00 NR -13.0000 147.300 main 310 310 __________O___ -1 -13.0000 147.300 7 3 294
1921022S15150 1921 4 SP EA NOT_NAMED 1921-01-23 12:00:00 NR -12.9775 147.249 main 303 303 __________P___ -1 -12.9775 147.249 7 3 294
1921022S15150 1921 4 SP EA NOT_NAMED 1921-01-23 15:00:00 NR -12.9109 147.095 main 303 296 __________P___ -1 -12.9109 147.095 7 3 295
1921022S15150 1921 4 SP EA NOT_NAMED 1921-01-23 18:00:00 NR -12.8409 146.942 main 298 291 __________P___ -1 -12.8409 146.942 7 3 297
1921022S15150 1921 4 SP EA NOT_NAMED 1921-01-23 21:00:00 NR -12.7614 146.794 main 291 291 __________P___ -1 -12.7614 146.794 7 3 301
1921022S15150 1921 4 SP EA NOT_NAMED 1921-01-23 23:00:00 NR -12.7000 146.700 main 294 294 __________O___ -1 -12.7000 146.700 7 3 305
1921022S15150 1921 4 SP EA NOT_NAMED 1921-01-24 00:00:00 NR -12.6662 146.656 main 294 287 __________P___ -1 -12.6662 146.656 7 3 311
1921022S15150 1921 4 SP EA NOT_NAMED 1921-01-24 03:00:00 NR -12.5545 146.531 main 287 287 __________P___ -1 -12.5545 146.531 7 3 314
1921022S15150 1921 4 SP EA NOT_NAMED 1921-01-24 06:00:00 NR -12.4295 146.410 main 294 288 __________P___ -1 -12.4295 146.410 7 4 318
1921022S15150 1921 4 SP EA NOT_NAMED 1921-01-24 09:00:00 NR -12.2943 146.286 main 289 286 __________P___ -1 -12.2943 146.286 7 4 318
1921022S15150 1921 4 SP EA NOT_NAMED 1921-01-24 11:00:00 NR -12.2000 146.200 main 286 286 __________O___ -1 -12.2000 146.200 7 4 317
1921022S15150 1921 4 SP EA NOT_NAMED 1921-01-24 12:00:00 NR -12.1546 146.151 main 286 282 __________P___ -1 -12.1546 146.151 7 4 313
1921022S15150 1921 4 SP EA NOT_NAMED 1921-01-24 15:00:00 NR -12.0134 145.997 main 282 272 __________P___ -1 -12.0134 145.997 7 4 314
1921022S15150 1921 4 SP EA NOT_NAMED 1921-01-24 18:00:00 NR -11.8646 145.841 main 272 265 __________P___ -1 -11.8646 145.841 7 4 316
1921022S15150 1921 4 SP EA NOT_NAMED 1921-01-24 21:00:00 NR -11.7083 145.691 main 269 259 __________P___ -1 -11.7083 145.691 7 4 318
1921022S15150 1921 4 SP EA NOT_NAMED 1921-01-24 23:00:00 NR -11.6000 145.600 main 264 264 __________O___ -1 -11.6000 145.600 7 4 321
1921022S15150 1921 4 SP EA NOT_NAMED 1921-01-25 00:00:00 NR -11.5462 145.556 main 267 248 __________P___ -1 -11.5462 145.556 7 4 323
1921022S15150 1921 4 SP EA NOT_NAMED 1921-01-25 03:00:00 NR -11.3800 145.435 main 248 245 __________P___ -1 -11.3800 145.435 7 4 327
1921022S15150 1921 4 SP EA NOT_NAMED 1921-01-25 06:00:00 NR -11.2062 145.330 main 245 245 __________P___ -1 -11.2062 145.330 7 4 332
1921022S15150 1921 4 SP EA NOT_NAMED 1921-01-25 09:00:00 NR -11.0250 145.244 main 245 245 __________P___ -1 -11.0250 145.244 7 4 338
1921022S15150 1921 4 SP EA NOT_NAMED 1921-01-25 11:00:00 NR -10.9000 145.200 main 250 250 __________O___ -1 -10.9000 145.200 7 4 338
1921022S15150 1921 4 SP EA NOT_NAMED 1921-01-25 12:00:00 NR -10.8170 145.166 main 250 243 __________P___ -1 -10.8170 145.166 7 6 340
1921022S15150 1921 4 SP EA NOT_NAMED 1921-01-25 15:00:00 NR -10.5542 145.072 main 243 227 __________P___ -1 -10.5542 145.072 7 5 344
1921022S15150 1921 4 SP EA NOT_NAMED 1921-01-25 18:00:00 NR -10.3123 145.018 main 227 219 __________P___ -1 -10.3123 145.018 7 4 355
1921022S15150 1921 4 SP EA NOT_NAMED 1921-01-25 21:00:00 NR -10.1445 145.035 main 212 204 __________P___ -1 -10.1445 145.035 7 3 21
1921022S15150 1921 4 SP EA NOT_NAMED 1921-01-25 23:00:00 NR -10.1000 145.100 main 204 204 __________O___ -1 -10.1000 145.100 7 3 74
1921022S15150 1921 4 SP EA NOT_NAMED 1921-01-26 00:00:00 NR -10.1082 145.161 main 196 188 __________P___ -1 -10.1082 145.161 7 5 111
1921022S15150 1921 4 SP EA NOT_NAMED 1921-01-26 03:00:00 NR -10.2188 145.419 main 188 180 __________P___ -1 -10.2188 145.419 7 7 119
1921022S15150 1921 4 SP EA NOT_NAMED 1921-01-26 06:00:00 NR -10.4293 145.746 main 180 172 __________P___ -1 -10.4293 145.746 7 8 126
1921022S15150 1921 4 SP EA NOT_NAMED 1921-01-26 09:00:00 NR -10.7021 146.089 main 173 173 __________P___ -1 -10.7021 146.089 7 9 131
1921022S15150 1921 4 SP EA NOT_NAMED 1921-01-26 11:00:00 NR -10.9000 146.300 main 177 174 __________O___ -1 -10.9000 146.300 7 8 135
1921022S15150 1921 4 SP EA NOT_NAMED 1921-01-26 12:00:00 NR -10.9878 146.385 main 174 172 __________P___ -1 -10.9878 146.385 7 7 140
1921022S15150 1921 4 SP EA NOT_NAMED 1921-01-26 15:00:00 NR -11.2737 146.620 main 180 173 __________P___ -1 -11.2737 146.620 7 7 144
1921022S15150 1921 4 SP EA NOT_NAMED 1921-01-26 18:00:00 NR -11.5814 146.825 main 194 189 __________P___ -1 -11.5814 146.825 7 7 149
1921022S15150 1921 4 SP EA NOT_NAMED 1921-01-26 21:00:00 NR -11.8952 147.000 main 215 215 __________P___ -1 -11.8952 147.000 7 7 153
1921022S15150 1921 4 SP EA NOT_NAMED 1921-01-26 23:00:00 NR -12.1000 147.100 main 233 233 __________O___ -1 -12.1000 147.100 7 7 155
1921022S15150 1921 4 SP EA NOT_NAMED 1921-01-27 00:00:00 NR -12.1962 147.148 main 244 240 __________P___ -1 -12.1962 147.148 7 6 156
1921022S15150 1921 4 SP EA NOT_NAMED 1921-01-27 03:00:00 NR -12.4799 147.271 main 268 268 __________P___ -1 -12.4799 147.271 7 6 159
1921022S15150 1921 4 SP EA NOT_NAMED 1921-01-27 06:00:00 NR -12.7562 147.368 main 298 298 __________P___ -1 -12.7562 147.368 7 6 162
1921022S15150 1921 4 SP EA NOT_NAMED 1921-01-27 09:00:00 NR -13.0250 147.450 main 318 311 __________P___ -1 -13.0250 147.450 7 6 163
1921022S15150 1921 4 SP EA NOT_NAMED 1921-01-27 11:00:00 NR -13.2000 147.500 main 311 304 __________O___ -1 -13.2000 147.500 7 5 168
1921022S15150 1921 4 SP EA NOT_NAMED 1921-01-27 12:00:00 NR -13.2730 147.507 main 304 290 __________P___ -1 -13.2730 147.507 7 4 0
1921022S15150 1921 4 SP EA NOT_NAMED 1921-01-27 15:00:00 NR -13.4809 147.512 main 290 278 __________P___ -1 -13.4809 147.512 7 4 176
1921022S15150 1921 4 SP EA NOT_NAMED 1921-01-27 18:00:00 NR -13.7015 147.540 main 278 271 __________P___ -1 -13.7015 147.540 7 5 165
1921022S15150 1921 4 SP EA NOT_NAMED 1921-01-27 21:00:00 NR -13.9726 147.651 main 281 277 __________P___ -1 -13.9726 147.651 7 7 153
1921022S15150 1921 4 SP EA NOT_NAMED 1921-01-27 23:00:00 NR -14.2000 147.800 main 283 283 __________O___ -1 -14.2000 147.800 7 9 145
1921022S15150 1921 4 SP EA NOT_NAMED 1921-01-28 00:00:00 NR -14.3470 147.918 main 290 287 __________P___ -1 -14.3470 147.918 7 13 140
1921022S15150 1921 4 SP EA NOT_NAMED 1921-01-28 03:00:00 NR -14.8521 148.372 main 325 325 __________P___ -1 -14.8521 148.372 7 14 137
1921022S15150 1921 4 SP EA NOT_NAMED 1921-01-28 06:00:00 NR -15.4091 148.928 main 367 367 __________P___ -1 -15.4091 148.928 7 16 135
1921022S15150 1921 4 SP EA NOT_NAMED 1921-01-28 09:00:00 NR -15.9617 149.519 main 394 394 __________P___ -1 -15.9617 149.519 7 16 134
1921022S15150 1921 4 SP EA NOT_NAMED 1921-01-28 11:00:00 NR -16.3000 149.900 main 422 422 __________O___ -1 -16.3000 149.900 7 15 133
1921022S15150 1921 4 SP EA NOT_NAMED 1921-01-28 12:00:00 NR -16.4549 150.079 main 432 421 __________P___ -1 -16.4549 150.079 7 13 131
1921022S15150 1921 4 SP EA NOT_NAMED 1921-01-28 15:00:00 NR -16.8873 150.605 main 423 415 __________P___ -1 -16.8873 150.605 7 13 130
1921022S15150 1921 4 SP EA NOT_NAMED 1921-01-28 18:00:00 NR -17.2588 151.089 main 413 408 __________P___ -1 -17.2588 151.089 7 11 128
1921022S15150 1921 4 SP EA NOT_NAMED 1921-01-28 21:00:00 NR -17.5537 151.493 main 414 413 __________P___ -1 -17.5537 151.493 7 9 127
1921022S15150 1921 4 SP EA NOT_NAMED 1921-01-28 23:00:00 NR -17.7000 151.700 main 421 421 __________O___ -1 -17.7000 151.700 7 7 127
1921022S15150 1921 4 SP EA NOT_NAMED 1921-01-29 00:00:00 NR -17.7554 151.776 main 421 421 __________P___ -1 -17.7554 151.776 7 4 127
1921022S15150 1921 4 SP EA NOT_NAMED 1921-01-29 03:00:00 NR -17.8553 151.920 main 422 422 __________P___ -1 -17.8553 151.920 7 2 125
1921022S15150 1921 4 SP EA NOT_NAMED 1921-01-29 06:00:00 NR -17.8874 151.975 main 430 430 __________P___ -1 -17.8874 151.975 7 1 118
1921022S15150 1921 4 SP EA NOT_NAMED 1921-01-29 09:00:00 NR -17.8922 151.990 main 430 430 __________P___ -1 -17.8922 151.990 7 0 0
1921022S15150 1921 4 SP EA NOT_NAMED 1921-01-29 11:00:00 NR -17.9000 152.000 main 430 430 __________O___ -1 -17.9000 152.000 7 1 0
1921022S15150 1921 4 SP EA NOT_NAMED 1921-01-29 12:00:00 NR -17.9117 152.015 main 430 430 __________P___ -1 -17.9117 152.015 7 1 135
1921022S15150 1921 4 SP EA NOT_NAMED 1921-01-29 15:00:00 NR -17.9484 152.057 main 438 431 __________P___ -1 -17.9484 152.057 7 1 138
1921022S15150 1921 4 SP EA NOT_NAMED 1921-01-29 18:00:00 NR -18.0044 152.112 main 431 431 __________P___ -1 -18.0044 152.112 7 2 137
1921022S15150 1921 4 SP EA NOT_NAMED 1921-01-29 21:00:00 NR -18.1015 152.205 main 433 433 __________P___ -1 -18.1015 152.205 7 3 138
1921022S15150 1921 4 SP EA NOT_NAMED 1921-01-29 23:00:00 NR -18.2000 152.300 main 436 436 __________O___ -1 -18.2000 152.300 7 4 136
1921022S15150 1921 4 SP EA NOT_NAMED 1921-01-30 00:00:00 NR -18.2625 152.367 main 439 439 __________P___ -1 -18.2625 152.367 7 6 134
1921022S15150 1921 4 SP EA NOT_NAMED 1921-01-30 03:00:00 NR -18.4929 152.614 main 446 446 __________P___ -1 -18.4929 152.614 7 7 135
1921022S15150 1921 4 SP EA NOT_NAMED 1921-01-30 06:00:00 NR -18.7732 152.904 main 459 451 __________P___ -1 -18.7732 152.904 7 8 136
1921022S15150 1921 4 SP EA NOT_NAMED 1921-01-30 09:00:00 NR -19.0844 153.207 main 451 445 __________P___ -1 -19.0844 153.207 7 8 138
1921022S15150 1921 4 SP EA NOT_NAMED 1921-01-30 11:00:00 NR -19.3000 153.400 main 445 437 __________O___ -1 -19.3000 153.400 7 8 141
1921022S15150 1921 4 SP EA NOT_NAMED 1921-01-30 12:00:00 NR -19.4053 153.484 main 443 433 __________P___ -1 -19.4053 153.484 7 8 145
1921022S15150 1921 4 SP EA NOT_NAMED 1921-01-30 15:00:00 NR -19.7337 153.727 main 433 418 __________P___ -1 -19.7337 153.727 7 8 146
1921022S15150 1921 4 SP EA NOT_NAMED 1921-01-30 18:00:00 NR -20.0689 153.954 main 426 414 __________P___ -1 -20.0689 153.954 7 8 148
1921022S15150 1921 4 SP EA NOT_NAMED 1921-01-30 21:00:00 NR -20.3952 154.167 main 422 416 __________P___ -1 -20.3952 154.167 7 8 149
1921022S15150 1921 4 SP EA NOT_NAMED 1921-01-30 23:00:00 NR -20.6000 154.300 main 419 413 __________O___ -1 -20.6000 154.300 7 7 148
1921022S15150 1921 4 SP EA NOT_NAMED 1921-01-31 00:00:00 NR -20.6983 154.366 main 423 417 __________P___ -1 -20.6983 154.366 7 7 148
1921022S15150 1921 4 SP EA NOT_NAMED 1921-01-31 03:00:00 NR -20.9786 154.555 main 426 422 __________P___ -1 -20.9786 154.555 7 6 148
1921022S15150 1921 4 SP EA NOT_NAMED 1921-01-31 06:00:00 NR -21.2349 154.730 main 427 403 __________P___ -1 -21.2349 154.730 7 6 147
1921022S15150 1921 4 SP EA NOT_NAMED 1921-01-31 09:00:00 NR -21.4640 154.894 main 403 397 __________P___ -1 -21.4640 154.894 7 5 146
1921022S15150 1921 4 SP EA NOT_NAMED 1921-01-31 11:00:00 NR -21.6000 155.000 main 397 397 __________O___ -1 -21.6000 155.000 7 5 147
1921022S15150 1921 4 SP EA NOT_NAMED 1921-01-31 12:00:00 NR -21.6595 155.035 main 387 382 __________P___ -1 -21.6595 155.035 7 4 152
1921022S15150 1921 4 SP EA NOT_NAMED 1921-01-31 15:00:00 NR -21.8143 155.128 main 382 377 __________P___ -1 -21.8143 155.128 7 3 147
1921022S15150 1921 4 SP EA NOT_NAMED 1921-01-31 18:00:00 NR -21.9513 155.239 main 368 368 __________P___ -1 -21.9513 155.239 7 4 136
1921022S15150 1921 4 SP EA NOT_NAMED 1921-01-31 21:00:00 NR -22.0925 155.418 main 370 367 __________P___ -1 -22.0925 155.418 7 5 126
1921022S15150 1921 4 SP EA NOT_NAMED 1921-01-31 23:00:00 NR -22.2000 155.600 main 373 371 __________O___ -1 -22.2000 155.600 7 7 123
1921022S15150 1921 4 SP EA NOT_NAMED 1921-02-01 00:00:00 NR -22.2751 155.725 main 371 371 __________P___ -1 -22.2751 155.725 7 9 121
1921022S15150 1921 4 SP EA NOT_NAMED 1921-02-01 03:00:00 NR -22.5207 156.185 main 391 391 __________P___ -1 -22.5207 156.185 7 11 118
1921022S15150 1921 4 SP EA NOT_NAMED 1921-02-01 06:00:00 NR -22.7699 156.732 main 411 411 __________P___ -1 -22.7699 156.732 7 11 114
1921022S15150 1921 4 SP EA NOT_NAMED 1921-02-01 09:00:00 NR -22.9883 157.315 main 453 453 __________P___ -1 -22.9883 157.315 7 11 110
1921022S15150 1921 4 SP EA NOT_NAMED 1921-02-01 11:00:00 NR -23.1000 157.700 main 485 485 __________O___ -1 -23.1000 157.700 7 11 106
1921022S15150 1921 4 SP EA NOT_NAMED 1921-02-01 12:00:00 NR -23.1423 157.886 main 503 498 __________P___ -1 -23.1423 157.886 7 10 100
1921022S15150 1921 4 SP EA NOT_NAMED 1921-02-01 15:00:00 NR -23.2196 158.415 main 545 545 __________P___ -1 -23.2196 158.415 7 9 96
1921022S15150 1921 4 SP EA NOT_NAMED 1921-02-01 18:00:00 NR -23.2388 158.912 main 593 575 __________P___ -1 -23.2388 158.912 7 9 90
1921022S15150 1921 4 SP EA NOT_NAMED 1921-02-01 21:00:00 NR -23.2215 159.388 main 575 549 __________P___ -1 -23.2215 159.388 7 9 87
1921022S15150 1921 4 SP EA NOT_NAMED 1921-02-01 23:00:00 NR -23.2000 159.700 main 549 __________O___ -1 -23.2000 159.700 7 9 86

デジタル台風データ・検索

IBTrACS Databaseについて

本データベースは、米国NOAAが公開する1842年以降の世界の熱帯低気圧のベストトラックデータアーカイブInternational Best Track Archive for Climate Stewardship (IBTrACS)を、ウェブで閲覧しやすい形式に変換したものです。

最終更新日:2021-12-06